createdAt,value
2022-11-16T00:02:20.884Z,39.30
2022-11-16T00:04:48.986Z,39.30
2022-11-16T00:07:16.997Z,44.30
2022-11-16T00:09:44.895Z,40.60
2022-11-16T00:12:12.797Z,42.90
2022-11-16T00:14:40.644Z,49.80
2022-11-16T00:17:08.606Z,56.00
2022-11-16T00:19:36.547Z,65.20
2022-11-16T00:22:04.600Z,51.80
2022-11-16T00:24:32.502Z,53.70
2022-11-16T00:27:00.546Z,54.50
2022-11-16T00:29:28.402Z,61.80
2022-11-16T00:31:56.313Z,56.70
2022-11-16T00:34:24.739Z,52.70
2022-11-16T00:36:52.834Z,57.10
2022-11-16T00:39:21.053Z,51.80
2022-11-16T00:41:49.621Z,54.20
2022-11-16T00:44:18.513Z,61.50
2022-11-16T00:46:46.400Z,62.00
2022-11-16T00:49:14.606Z,61.90
2022-11-16T00:51:42.827Z,57.70
2022-11-16T00:54:10.845Z,62.40
2022-11-16T00:56:39.325Z,58.80
2022-11-16T00:59:07.214Z,64.80
2022-11-16T01:01:35.200Z,55.30
2022-11-16T01:04:03.211Z,56.00
2022-11-16T01:06:31.105Z,56.90
2022-11-16T01:08:58.959Z,53.90
2022-11-16T01:11:45.251Z,49.70
2022-11-16T01:14:13.141Z,57.40
2022-11-16T01:16:40.991Z,59.40
2022-11-16T01:19:09.666Z,63.90
2022-11-16T01:21:37.533Z,47.00
2022-11-16T01:24:05.890Z,57.50
2022-11-16T01:26:33.847Z,53.80
2022-11-16T01:29:01.680Z,51.40
2022-11-16T01:31:29.528Z,44.90
2022-11-16T01:33:57.350Z,45.50
2022-11-16T01:36:25.187Z,39.80
2022-11-16T01:38:53.088Z,36.40
2022-11-16T01:41:23.560Z,35.90
2022-11-16T01:44:32.268Z,30.50
2022-11-16T01:47:03.028Z,31.40
2022-11-16T01:49:33.523Z,33.00
2022-11-16T01:52:04.993Z,30.50
2022-11-16T01:54:37.766Z,29.40
2022-11-16T01:57:09.524Z,32.50
2022-11-16T01:59:37.872Z,30.90
2022-11-16T02:02:05.924Z,31.90
2022-11-16T02:04:33.860Z,27.70
2022-11-16T02:07:29.919Z,28.50
2022-11-16T02:10:20.858Z,26.10
2022-11-16T02:13:36.279Z,30.00
2022-11-16T02:16:39.597Z,28.90
2022-11-16T02:19:10.408Z,32.10
2022-11-16T02:21:43.528Z,30.40
2022-11-16T02:24:11.286Z,30.80
2022-11-16T02:26:48.160Z,29.60
2022-11-16T02:29:34.549Z,30.50
2022-11-16T02:32:09.861Z,31.40
2022-11-16T02:34:46.432Z,33.40
2022-11-16T02:37:18.626Z,34.10
2022-11-16T02:39:50.188Z,32.70
2022-11-16T02:42:26.186Z,33.20
2022-11-16T02:44:57.208Z,33.40
2022-11-16T02:47:31.217Z,34.50
2022-11-16T02:50:05.463Z,32.30
2022-11-16T02:52:33.409Z,33.50
2022-11-16T02:55:01.180Z,35.90
2022-11-16T02:57:33.495Z,30.40
2022-11-16T03:00:04.988Z,29.50
2022-11-16T03:03:05.956Z,32.00
2022-11-16T03:05:42.514Z,31.40
2022-11-16T03:08:16.260Z,33.90
2022-11-16T03:13:34.987Z,31.60
2022-11-16T03:16:09.541Z,31.80
2022-11-16T03:18:39.789Z,33.10
2022-11-16T03:21:37.204Z,30.80
2022-11-16T03:24:06.236Z,34.40
2022-11-16T03:26:58.337Z,37.10
2022-11-16T03:29:47.837Z,35.40
2022-11-16T03:32:35.341Z,40.00
2022-11-16T03:35:09.945Z,39.90
2022-11-16T03:37:39.046Z,41.00
2022-11-16T03:40:09.274Z,41.70
2022-11-16T03:42:38.170Z,40.80
2022-11-16T03:45:07.048Z,43.70
2022-11-16T03:47:34.951Z,37.20
2022-11-16T03:50:03.398Z,39.40
2022-11-16T03:52:31.601Z,35.30
2022-11-16T03:54:59.489Z,40.40
2022-11-16T03:57:27.499Z,38.20
2022-11-16T03:59:55.285Z,39.90
2022-11-16T04:02:23.407Z,41.30
2022-11-16T04:05:09.799Z,39.60
2022-11-16T04:07:56.086Z,38.70
2022-11-16T04:10:42.501Z,35.80
2022-11-16T04:13:30.856Z,40.40
2022-11-16T04:16:17.304Z,39.20
2022-11-16T04:19:03.799Z,40.40
2022-11-16T04:21:55.896Z,37.00
2022-11-16T04:24:28.867Z,38.10
2022-11-16T04:27:22.113Z,41.10
2022-11-16T04:29:50.462Z,42.10
2022-11-16T04:32:37.239Z,40.20
2022-11-16T04:35:24.199Z,40.10
2022-11-16T04:37:54.958Z,37.60
2022-11-16T04:40:25.455Z,39.00
2022-11-16T04:42:54.995Z,46.90
2022-11-16T04:45:42.666Z,38.90
2022-11-16T04:48:12.325Z,40.50
2022-11-16T04:50:40.859Z,40.40
2022-11-16T04:53:09.147Z,43.30
2022-11-16T04:55:37.410Z,41.80
2022-11-16T04:58:05.679Z,40.70
2022-11-16T05:00:33.539Z,35.90
2022-11-16T05:03:04.289Z,32.60
2022-11-16T05:05:32.321Z,31.50
2022-11-16T05:08:00.188Z,37.20
2022-11-16T05:10:28.158Z,35.10
2022-11-16T05:12:55.974Z,35.30
2022-11-16T05:15:23.757Z,39.40
2022-11-16T05:17:54.973Z,37.90
2022-11-16T05:20:41.297Z,35.50
2022-11-16T05:23:29.054Z,37.10
2022-11-16T05:25:56.994Z,34.70
2022-11-16T05:28:25.019Z,43.00
2022-11-16T05:30:52.925Z,36.80
2022-11-16T05:33:20.862Z,37.40
2022-11-16T05:35:51.959Z,35.50
2022-11-16T05:38:20.392Z,34.60
2022-11-16T05:40:48.263Z,33.60
2022-11-16T05:43:16.131Z,37.50
2022-11-16T05:45:44.057Z,40.90
2022-11-16T05:48:12.035Z,40.90
2022-11-16T05:50:42.699Z,44.80
2022-11-16T05:53:11.214Z,45.00
2022-11-16T05:55:39.110Z,51.60
2022-11-16T05:58:06.988Z,53.20
2022-11-16T06:00:34.867Z,58.00
2022-11-16T06:03:02.797Z,58.30
2022-11-16T06:05:30.774Z,50.90
2022-11-16T06:07:58.661Z,43.90
2022-11-16T06:10:26.793Z,44.50
2022-11-16T06:12:54.695Z,44.20
2022-11-16T06:15:22.573Z,42.60
2022-11-16T06:17:50.544Z,47.50
2022-11-16T06:20:18.383Z,42.60
2022-11-16T06:22:46.517Z,40.80
2022-11-16T06:25:14.345Z,39.90
2022-11-16T06:27:42.155Z,42.10
2022-11-16T06:30:10.308Z,43.90
2022-11-16T06:32:38.196Z,43.60
2022-11-16T06:35:06.847Z,50.60
2022-11-16T06:37:34.718Z,43.90
2022-11-16T06:40:02.823Z,47.80
2022-11-16T06:42:30.675Z,49.90
2022-11-16T06:44:58.507Z,47.90
2022-11-16T06:47:26.362Z,50.00
2022-11-16T06:49:54.242Z,45.80
2022-11-16T06:52:22.128Z,44.80
2022-11-16T06:54:49.996Z,48.40
2022-11-16T06:57:17.982Z,47.70
2022-11-16T06:59:45.815Z,45.70
2022-11-16T07:02:13.677Z,52.50
2022-11-16T07:04:41.663Z,54.50
2022-11-16T07:07:09.656Z,52.80
2022-11-16T07:09:37.612Z,55.00
2022-11-16T07:12:05.726Z,58.30
2022-11-16T07:14:33.503Z,51.70
2022-11-16T07:17:06.541Z,54.60
2022-11-16T07:19:37.189Z,56.80
2022-11-16T07:22:05.196Z,59.00
2022-11-16T07:24:33.540Z,55.20
2022-11-16T07:27:01.444Z,53.60
2022-11-16T07:29:29.865Z,51.70
2022-11-16T07:31:57.741Z,52.90
2022-11-16T07:34:26.637Z,54.50
2022-11-16T07:36:54.507Z,56.90
2022-11-16T07:39:22.399Z,53.40
2022-11-16T07:41:53.082Z,55.40
2022-11-16T07:44:21.291Z,50.60
2022-11-16T07:46:49.259Z,53.70
2022-11-16T07:49:18.879Z,54.90
2022-11-16T07:51:47.138Z,61.50
2022-11-16T07:54:16.027Z,56.00
2022-11-16T07:56:43.948Z,56.20
2022-11-16T07:59:11.850Z,52.40
2022-11-16T08:01:39.765Z,54.60
2022-11-16T08:04:07.633Z,54.80
2022-11-16T08:06:35.587Z,49.20
2022-11-16T08:09:04.122Z,54.10
2022-11-16T08:11:32.062Z,49.10
2022-11-16T08:13:59.989Z,51.40
2022-11-16T08:16:27.952Z,48.90
2022-11-16T08:18:55.875Z,48.30
2022-11-16T08:21:23.760Z,53.00
2022-11-16T08:23:55.354Z,54.80
2022-11-16T08:26:27.592Z,50.70
2022-11-16T08:28:56.650Z,54.80
2022-11-16T08:31:28.785Z,57.40
2022-11-16T08:33:56.856Z,58.50
2022-11-16T08:36:24.913Z,56.10
2022-11-16T08:38:53.165Z,50.00
2022-11-16T08:41:21.781Z,56.00
2022-11-16T08:43:50.819Z,48.00
2022-11-16T08:46:19.145Z,48.20
2022-11-16T08:48:47.606Z,45.00
2022-11-16T08:51:19.616Z,45.30
2022-11-16T08:53:49.664Z,41.70
2022-11-16T08:56:18.421Z,43.30
2022-11-16T08:58:47.414Z,46.40
2022-11-16T09:01:18.424Z,44.10
2022-11-16T09:03:47.036Z,39.80
2022-11-16T09:06:15.857Z,38.90
2022-11-16T09:08:46.031Z,38.10
2022-11-16T09:11:17.365Z,38.40
2022-11-16T09:13:46.897Z,43.20
2022-11-16T09:16:18.129Z,40.80
2022-11-16T09:18:47.244Z,40.40
2022-11-16T09:21:20.534Z,35.80
2022-11-16T09:23:49.163Z,42.30
2022-11-16T09:26:20.549Z,41.00
2022-11-16T09:29:03.254Z,41.60
2022-11-16T09:31:34.645Z,40.90
2022-11-16T09:34:02.972Z,41.50
2022-11-16T09:36:31.535Z,40.50
2022-11-16T09:39:30.135Z,43.40
2022-11-16T09:42:15.251Z,43.50
2022-11-16T09:44:59.814Z,38.60
2022-11-16T09:48:06.728Z,39.40
2022-11-16T09:50:59.392Z,43.90
2022-11-16T09:53:42.510Z,41.00
2022-11-16T09:56:25.440Z,43.10
2022-11-16T09:59:00.325Z,48.40
2022-11-16T10:01:42.052Z,41.30
2022-11-16T10:04:18.887Z,37.10
2022-11-16T10:07:06.386Z,36.70
2022-11-16T10:09:35.337Z,38.50
2022-11-16T10:12:30.471Z,39.20
2022-11-16T10:15:31.948Z,49.10
2022-11-16T10:18:24.987Z,49.80
2022-11-16T10:20:55.437Z,47.40
2022-11-16T10:23:45.159Z,46.40
2022-11-16T10:26:21.860Z,52.60
2022-11-16T10:28:52.404Z,57.10
2022-11-16T10:31:32.566Z,55.70
2022-11-16T10:34:05.757Z,51.60
2022-11-16T10:36:38.573Z,54.50
2022-11-16T10:39:13.820Z,53.40
2022-11-16T10:42:10.365Z,52.90
2022-11-16T10:44:44.233Z,53.00
2022-11-16T10:52:20.391Z,49.50
2022-11-16T10:54:48.279Z,45.40
2022-11-16T10:57:17.442Z,40.70
2022-11-16T10:59:59.130Z,40.00
2022-11-16T11:02:34.717Z,34.10
2022-11-16T11:05:21.719Z,37.00
2022-11-16T11:07:58.371Z,34.00
2022-11-16T11:10:38.963Z,30.10
2022-11-16T11:13:12.838Z,31.50
2022-11-16T11:15:45.129Z,32.10
2022-11-16T11:18:15.797Z,31.40
2022-11-16T11:20:50.586Z,30.00
2022-11-16T11:23:21.624Z,31.00
2022-11-16T11:25:55.665Z,33.10
2022-11-16T11:28:30.192Z,31.50
2022-11-16T11:31:42.784Z,31.00
2022-11-16T11:34:10.541Z,35.50
2022-11-16T11:37:01.333Z,32.50
2022-11-16T11:39:37.124Z,39.50
2022-11-16T11:42:06.633Z,34.40
2022-11-16T11:44:49.840Z,36.70
2022-11-16T11:47:56.775Z,37.40
2022-11-16T11:50:33.571Z,35.50
2022-11-16T11:53:18.957Z,37.30
2022-11-16T11:55:47.442Z,35.00
2022-11-16T11:58:19.436Z,35.60
2022-11-16T12:01:22.298Z,36.80
2022-11-16T12:04:08.588Z,36.90
2022-11-16T12:07:01.267Z,41.00
2022-11-16T12:09:58.496Z,38.00
2022-11-16T12:12:38.375Z,36.50
2022-11-16T12:15:36.857Z,36.90
2022-11-16T12:18:29.686Z,35.00
2022-11-16T12:21:06.713Z,39.10
2022-11-16T12:24:12.445Z,36.40
2022-11-16T12:26:58.572Z,37.50
2022-11-16T12:29:42.036Z,39.30
2022-11-16T12:32:42.215Z,35.50
2022-11-16T12:35:32.773Z,36.10
2022-11-16T12:38:23.082Z,36.00
2022-11-16T12:41:12.363Z,34.80
2022-11-16T12:43:53.384Z,35.10
2022-11-16T12:46:30.253Z,34.40
2022-11-16T12:49:28.995Z,36.10
2022-11-16T12:52:24.660Z,31.20
2022-11-16T12:55:28.416Z,33.40
2022-11-16T12:58:20.563Z,29.50
2022-11-16T13:00:54.621Z,33.60
2022-11-16T13:03:40.590Z,37.30
2022-11-16T13:06:14.834Z,32.80
2022-11-16T13:08:57.615Z,34.10
2022-11-16T13:11:56.075Z,31.80
2022-11-16T13:14:30.195Z,34.90
2022-11-16T13:17:01.231Z,31.70
2022-11-16T13:19:29.720Z,34.60
2022-11-16T13:22:06.974Z,32.50
2022-11-16T13:24:55.937Z,38.70
2022-11-16T13:28:14.347Z,32.10
2022-11-16T13:30:57.968Z,31.60
2022-11-16T13:33:49.262Z,30.20
2022-11-16T13:36:45.794Z,31.60
2022-11-16T13:39:21.998Z,30.80
2022-11-16T13:42:05.481Z,30.50
2022-11-16T13:44:33.948Z,31.30
2022-11-16T13:47:17.289Z,30.80
2022-11-16T13:50:16.809Z,31.60
2022-11-16T13:53:36.550Z,30.10
2022-11-16T13:55:41.951Z,28.80
2022-11-16T13:58:19.718Z,30.20
2022-11-16T14:00:58.928Z,30.20
2022-11-16T14:03:38.352Z,31.50
2022-11-16T14:06:24.379Z,29.30
2022-11-16T14:08:53.096Z,31.30
2022-11-16T14:11:29.740Z,30.90
2022-11-16T14:14:01.206Z,31.10
2022-11-16T14:16:29.261Z,29.70
2022-11-16T14:19:00.237Z,32.60
2022-11-16T14:21:51.429Z,34.30
2022-11-16T14:24:35.522Z,33.50
2022-11-16T14:27:38.596Z,32.20
2022-11-16T14:30:23.316Z,35.60
2022-11-16T14:32:53.976Z,37.60
2022-11-16T14:35:40.589Z,39.10
2022-11-16T14:38:31.523Z,35.80
2022-11-16T14:41:02.238Z,37.40
2022-11-16T14:43:33.056Z,34.80
2022-11-16T14:46:15.337Z,36.30
2022-11-16T14:48:47.332Z,38.10
2022-11-16T14:51:33.119Z,36.50
2022-11-16T14:54:05.295Z,34.60
2022-11-16T14:56:33.245Z,31.80
2022-11-16T14:59:02.776Z,32.40
2022-11-16T15:01:34.904Z,35.40
2022-11-16T15:04:07.325Z,33.30
2022-11-16T15:06:53.559Z,32.70
2022-11-16T15:09:33.195Z,32.00
2022-11-16T15:12:23.672Z,34.50
2022-11-16T15:14:54.312Z,34.60
2022-11-16T15:17:27.241Z,34.90
2022-11-16T15:20:00.435Z,34.10
2022-11-16T15:22:31.844Z,36.40
2022-11-16T15:25:01.665Z,33.60
2022-11-16T15:27:37.338Z,36.90
2022-11-16T15:30:15.858Z,32.60
2022-11-16T15:32:45.858Z,32.30
2022-11-16T15:35:34.732Z,37.00
2022-11-16T15:38:31.666Z,32.10
2022-11-16T15:41:01.677Z,35.90
2022-11-16T15:43:45.186Z,32.40
2022-11-16T15:46:33.417Z,32.70
2022-11-16T15:49:01.717Z,37.20
2022-11-16T15:51:31.246Z,34.80
2022-11-16T15:54:15.778Z,34.70
2022-11-16T15:56:43.749Z,34.60
2022-11-16T15:59:17.575Z,33.50
2022-11-16T16:01:45.633Z,32.40
2022-11-16T16:04:18.598Z,36.50
2022-11-16T16:06:48.009Z,33.40
2022-11-16T16:09:28.406Z,34.00
2022-11-16T16:12:22.566Z,33.40
2022-11-16T16:14:52.246Z,35.20
2022-11-16T16:17:25.502Z,33.50
2022-11-16T16:19:57.788Z,36.30
2022-11-16T16:22:32.711Z,34.80
2022-11-16T16:25:04.128Z,36.80
2022-11-16T16:27:37.412Z,29.30
2022-11-16T16:30:06.456Z,36.50
2022-11-16T16:32:37.059Z,34.80
2022-11-16T16:35:08.340Z,34.20
2022-11-16T16:37:36.875Z,32.10
2022-11-16T16:40:05.321Z,29.30
2022-11-16T16:42:33.317Z,33.00
2022-11-16T16:45:02.322Z,33.20
2022-11-16T16:47:31.061Z,35.40
2022-11-16T16:49:58.958Z,32.60
2022-11-16T16:52:27.785Z,32.70
2022-11-16T16:54:55.729Z,33.00
2022-11-16T16:57:23.684Z,37.10
2022-11-16T16:59:51.499Z,37.70
2022-11-16T17:02:19.469Z,37.20
2022-11-16T17:04:48.576Z,34.30
2022-11-16T17:07:16.879Z,32.50
2022-11-16T17:09:47.222Z,39.50
2022-11-16T17:12:15.070Z,35.40
2022-11-16T17:14:51.474Z,35.50
2022-11-16T17:17:20.938Z,35.70
2022-11-16T17:19:48.954Z,37.60
2022-11-16T17:22:17.626Z,37.10
2022-11-16T17:24:45.618Z,38.10
2022-11-16T17:27:13.763Z,39.40
2022-11-16T17:29:41.639Z,38.10
2022-11-16T17:32:09.571Z,37.20
2022-11-16T17:34:39.951Z,39.30
2022-11-16T17:37:08.023Z,40.50
2022-11-16T17:39:35.914Z,38.10
2022-11-16T17:42:03.952Z,43.20
2022-11-16T17:44:32.170Z,39.40
2022-11-16T17:46:59.999Z,41.70
2022-11-16T17:49:27.958Z,40.80
2022-11-16T17:51:55.850Z,43.00
2022-11-16T17:54:23.710Z,39.50
2022-11-16T17:56:51.561Z,38.60
2022-11-16T17:59:19.547Z,41.70
2022-11-16T18:01:48.598Z,39.50
2022-11-16T18:04:16.606Z,38.80
2022-11-16T18:06:46.682Z,37.50
2022-11-16T18:09:14.606Z,37.50
2022-11-16T18:11:42.492Z,36.90
2022-11-16T18:14:10.729Z,43.50
2022-11-16T18:16:41.108Z,38.40
2022-11-16T18:19:12.091Z,37.00
2022-11-16T18:21:41.537Z,36.50
2022-11-16T18:24:11.105Z,38.10
2022-11-16T18:26:40.513Z,38.30
2022-11-16T18:29:12.347Z,42.50
2022-11-16T18:31:40.122Z,36.70
2022-11-16T18:34:07.985Z,38.80
2022-11-16T18:36:35.819Z,37.50
2022-11-16T18:39:03.771Z,41.50
2022-11-16T18:41:32.398Z,38.80
2022-11-16T18:44:01.870Z,38.50
2022-11-16T18:46:32.133Z,36.20
2022-11-16T18:49:00.719Z,35.20
2022-11-16T18:51:29.682Z,36.70
2022-11-16T18:53:57.552Z,39.00
2022-11-16T18:56:25.693Z,38.50
2022-11-16T18:58:53.831Z,36.00
2022-11-16T19:01:24.862Z,37.00
2022-11-16T19:03:54.521Z,38.30
2022-11-16T19:06:23.388Z,41.80
2022-11-16T19:08:59.268Z,38.80
2022-11-16T19:11:28.510Z,42.50
2022-11-16T19:14:00.759Z,41.50
2022-11-16T19:16:29.395Z,46.40
2022-11-16T19:18:57.329Z,42.40
2022-11-16T19:21:25.631Z,45.90
2022-11-16T19:23:55.846Z,42.10
2022-11-16T19:26:25.854Z,41.40
2022-11-16T19:28:54.517Z,42.00
2022-11-16T19:31:28.777Z,38.80
2022-11-16T19:33:58.021Z,38.10
2022-11-16T19:36:27.124Z,43.40
2022-11-16T19:38:55.772Z,38.50
2022-11-16T19:41:25.354Z,39.50
2022-11-16T19:43:57.427Z,39.90
2022-11-16T19:46:30.852Z,37.60
2022-11-16T19:48:59.350Z,36.50
2022-11-16T19:51:32.921Z,39.30
2022-11-16T19:54:02.581Z,42.10
2022-11-16T19:56:31.025Z,43.00
2022-11-16T19:58:58.958Z,42.30
2022-11-16T20:01:29.561Z,41.30
2022-11-16T20:04:00.468Z,39.50
2022-11-16T20:06:31.530Z,39.00
2022-11-16T20:09:03.987Z,41.20
2022-11-16T20:11:35.763Z,39.80
2022-11-16T20:14:06.124Z,43.00
2022-11-16T20:16:38.978Z,42.00
2022-11-16T20:19:09.120Z,38.40
2022-11-16T20:21:42.458Z,39.80
2022-11-16T20:24:15.698Z,38.70
2022-11-16T20:26:46.703Z,39.80
2022-11-16T20:29:16.398Z,39.90
2022-11-16T20:31:45.494Z,45.30
2022-11-16T20:34:16.523Z,43.60
2022-11-16T20:36:47.338Z,42.40
2022-11-16T20:39:20.571Z,40.90
2022-11-16T20:41:49.174Z,42.80
2022-11-16T20:44:21.148Z,42.40
2022-11-16T20:46:50.664Z,39.70
2022-11-16T20:49:18.542Z,42.40
2022-11-16T20:51:47.726Z,43.60
2022-11-16T20:54:15.659Z,39.20
2022-11-16T20:56:44.565Z,43.40
2022-11-16T20:59:12.463Z,45.50
2022-11-16T21:01:41.796Z,45.10
2022-11-16T21:04:10.992Z,44.70
2022-11-16T21:06:38.903Z,46.30
2022-11-16T21:09:06.900Z,43.10
2022-11-16T21:11:57.839Z,44.40
2022-11-16T21:14:25.688Z,45.40
2022-11-16T21:16:53.559Z,44.10
2022-11-16T21:19:21.394Z,49.20
2022-11-16T21:21:49.228Z,46.80
2022-11-16T21:24:17.737Z,47.50
2022-11-16T21:26:45.601Z,44.40
2022-11-16T21:29:13.452Z,42.00
2022-11-16T21:31:41.375Z,43.60
2022-11-16T21:34:09.172Z,44.50
2022-11-16T21:36:37.108Z,41.70
2022-11-16T21:39:04.980Z,42.20
2022-11-16T21:41:32.883Z,38.20
2022-11-16T21:44:00.709Z,39.00
2022-11-16T21:46:28.625Z,36.90
2022-11-16T21:48:56.903Z,42.80
2022-11-16T21:51:26.928Z,42.10
2022-11-16T21:53:55.513Z,39.80
2022-11-16T21:56:25.167Z,39.60
2022-11-16T21:58:54.253Z,42.40
2022-11-16T22:01:23.563Z,44.50
2022-11-16T22:04:11.628Z,44.60
2022-11-16T22:06:57.952Z,42.20
2022-11-16T22:09:25.927Z,41.20
2022-11-16T22:11:53.799Z,38.80
2022-11-16T22:14:21.664Z,44.50
2022-11-16T22:16:49.478Z,46.20
2022-11-16T22:19:17.329Z,43.10
2022-11-16T22:21:45.111Z,45.80
2022-11-16T22:24:13.003Z,42.80
2022-11-16T22:26:41.134Z,41.20
2022-11-16T22:29:08.924Z,40.50
2022-11-16T22:31:36.907Z,41.70
2022-11-16T22:34:04.742Z,39.90
2022-11-16T22:36:32.543Z,43.00
2022-11-16T22:39:00.731Z,44.20
2022-11-16T22:41:28.579Z,44.80
2022-11-16T22:43:56.474Z,43.90
2022-11-16T22:46:24.367Z,45.70
2022-11-16T22:48:52.306Z,44.90
2022-11-16T22:51:23.101Z,39.90
2022-11-16T22:53:59.890Z,43.00
2022-11-16T22:56:29.887Z,40.30
2022-11-16T22:58:58.397Z,40.60
2022-11-16T23:01:26.689Z,39.60
2022-11-16T23:03:54.558Z,37.60
2022-11-16T23:06:22.580Z,38.30
2022-11-16T23:08:50.906Z,39.50
2022-11-16T23:11:39.996Z,34.20
2022-11-16T23:14:30.046Z,35.80
2022-11-16T23:16:57.951Z,37.30
2022-11-16T23:19:45.363Z,33.60
2022-11-16T23:22:34.721Z,36.70
2022-11-16T23:25:27.085Z,32.90
2022-11-16T23:28:07.983Z,30.30
2022-11-16T23:30:36.371Z,37.30
2022-11-16T23:33:04.307Z,31.20
2022-11-16T23:35:32.330Z,28.80
2022-11-16T23:38:06.069Z,32.40
2022-11-16T23:40:36.611Z,29.30
2022-11-16T23:43:28.532Z,30.50
2022-11-16T23:45:56.440Z,32.40
2022-11-16T23:48:24.298Z,32.50
2022-11-16T23:50:52.187Z,38.60
2022-11-16T23:53:20.062Z,38.80
2022-11-16T23:55:47.892Z,38.70
2022-11-16T23:58:15.880Z,45.50
